Time;durP1;ratioP1;P1;durP2;ratioP2;P2;SDS_P1;SDS_P2;PMS_P1;PMS_P2;Temp;Humidity;BMP_temperature;BMP_pressure;BME280_temperature;BME280_humidity;BME280_pressure;Samples;Min_cycle;Max_cycle;Signal;HPM_P1;HPM_P2
2022/09/12 00:02:03;;;;;;;7.95;4.47;;;13.30;99.90;;;;;;5073287;28;20198;-67
2022/09/12 00:04:32;;;;;;;6.20;4.60;;;13.20;99.90;;;;;;5073248;28;20554;-70
2022/09/12 00:07:01;;;;;;;8.98;4.65;;;13.20;99.90;;;;;;5073179;28;20191;-67
2022/09/12 00:09:29;;;;;;;8.02;5.15;;;13.10;99.90;;;;;;5073056;28;20199;-67
2022/09/12 00:11:59;;;;;;;9.75;5.55;;;13.10;99.90;;;;;;5073181;28;20190;-66
2022/09/12 00:14:28;;;;;;;5.78;4.78;;;13.10;99.90;;;;;;5073330;28;20199;-67
2022/09/12 00:16:58;;;;;;;7.53;4.53;;;13.10;99.90;;;;;;5072815;28;20685;-67
2022/09/12 00:19:27;;;;;;;6.35;4.93;;;13.10;99.90;;;;;;5072688;28;20191;-67
2022/09/12 00:21:56;;;;;;;5.15;4.65;;;13.00;99.90;;;;;;5072787;28;20657;-67
2022/09/12 00:24:25;;;;;;;6.45;4.25;;;13.00;99.90;;;;;;5072861;28;20195;-66
2022/09/12 00:26:53;;;;;;;4.30;3.90;;;13.00;99.90;;;;;;5073014;28;20210;-68
2022/09/12 00:29:23;;;;;;;5.45;4.47;;;13.00;99.90;;;;;;5072803;28;20773;-67
2022/09/12 00:32:17;;;;;;;9.82;4.30;;;13.00;99.90;;;;;;5072741;28;20579;-66
2022/09/12 00:34:45;;;;;;;7.80;4.32;;;13.00;99.90;;;;;;5071382;28;20199;-66
2022/09/12 00:37:14;;;;;;;8.73;5.03;;;13.00;99.90;;;;;;5072510;28;20218;-67
2022/09/12 00:39:43;;;;;;;10.65;5.40;;;12.90;99.90;;;;;;5072619;28;20191;-67
2022/09/12 00:42:12;;;;;;;7.15;5.15;;;12.90;99.90;;;;;;5072759;28;20191;-67
2022/09/12 00:44:49;;;;;;;7.40;5.35;;;12.90;99.90;;;;;;5072968;28;20199;-67
2022/09/12 00:47:23;;;;;;;8.35;5.50;;;12.90;99.90;;;;;;5072548;28;20194;-67
2022/09/12 00:49:59;;;;;;;6.38;5.78;;;12.90;99.90;;;;;;5072572;28;20188;-68
2022/09/12 00:52:33;;;;;;;6.55;5.90;;;12.90;99.90;;;;;;5072748;28;20194;-66
2022/09/12 00:55:07;;;;;;;6.60;5.68;;;12.80;99.90;;;;;;5087656;28;20215;-67
2022/09/12 00:57:40;;;;;;;15.40;5.90;;;12.80;99.90;;;;;;5072178;28;20234;-68
2022/09/12 01:00:15;;;;;;;6.97;6.03;;;12.80;99.90;;;;;;5072452;28;20180;-68
2022/09/12 01:02:46;;;;;;;8.98;6.10;;;12.70;99.90;;;;;;5072293;28;20210;-67
2022/09/12 01:05:15;;;;;;;7.07;6.38;;;12.70;99.90;;;;;;5072293;28;20206;-69
2022/09/12 01:07:47;;;;;;;7.32;6.35;;;12.70;99.90;;;;;;5072402;28;20560;-67
2022/09/12 01:10:17;;;;;;;12.50;6.45;;;12.60;99.90;;;;;;5072354;28;20187;-68
2022/09/12 01:12:46;;;;;;;7.03;5.88;;;12.60;99.90;;;;;;5072364;28;20202;-66
2022/09/12 01:15:16;;;;;;;12.55;5.72;;;12.60;99.90;;;;;;5072500;28;20221;-66
2022/09/12 01:17:59;;;;;;;11.20;5.43;;;12.50;99.90;;;;;;5072037;28;20606;-67
2022/09/12 01:20:44;;;;;;;12.15;5.63;;;12.50;99.90;;;;;;5072146;28;20254;-67
2022/09/12 01:23:57;;;;;;;8.20;5.93;;;12.50;99.90;;;;;;5072143;28;20206;-68
2022/09/12 01:27:02;;;;;;;23.33;4.70;;;12.50;99.90;;;;;;5072144;28;20579;-67
2022/09/12 01:29:56;;;;;;;8.88;5.22;;;12.40;99.90;;;;;;5067995;28;20211;-67
2022/09/12 01:32:34;;;;;;;12.93;5.72;;;12.40;99.90;;;;;;5076066;28;20211;-70
2022/09/12 01:35:15;;;;;;;10.55;5.45;;;12.40;99.90;;;;;;5076076;28;20203;-67
2022/09/12 01:37:53;;;;;;;18.75;6.20;;;12.40;99.90;;;;;;5076237;28;20253;-67
2022/09/12 01:40:28;;;;;;;10.05;5.43;;;12.40;99.90;;;;;;5076049;28;20207;-67
2022/09/12 01:43:04;;;;;;;32.30;5.40;;;12.30;99.90;;;;;;5075870;28;20210;-66
2022/09/12 01:45:39;;;;;;;5.93;4.82;;;12.40;99.90;;;;;;5075894;28;20203;-67
2022/09/12 01:48:17;;;;;;;5.28;4.78;;;12.30;99.90;;;;;;5075716;28;20586;-66
2022/09/12 01:50:51;;;;;;;6.35;4.50;;;12.40;99.90;;;;;;5076057;28;20207;-65
2022/09/12 01:53:23;;;;;;;5.78;4.82;;;12.40;99.90;;;;;;5075730;28;20221;-66
2022/09/12 01:55:56;;;;;;;8.32;4.38;;;12.30;99.90;;;;;;5075681;28;20203;-66
2022/09/12 01:58:29;;;;;;;8.88;4.85;;;12.30;99.90;;;;;;5075722;28;20248;-69
2022/09/12 02:01:03;;;;;;;6.25;4.30;;;12.30;99.90;;;;;;5076080;28;20203;-67
2022/09/12 02:03:39;;;;;;;5.50;4.63;;;12.30;99.90;;;;;;5075532;28;20566;-67
2022/09/12 02:06:11;;;;;;;15.57;4.90;;;12.20;99.90;;;;;;5075785;28;20210;-66
2022/09/12 02:08:45;;;;;;;16.38;5.20;;;12.30;99.90;;;;;;5075328;28;20224;-65
2022/09/12 02:11:14;;;;;;;9.13;5.00;;;12.20;99.90;;;;;;5075365;28;20203;-66
2022/09/12 02:13:48;;;;;;;7.03;4.40;;;12.20;99.90;;;;;;5075318;28;20199;-65
2022/09/12 02:16:22;;;;;;;5.15;4.65;;;12.20;99.90;;;;;;5075272;28;20211;-65
2022/09/12 02:18:55;;;;;;;12.27;4.88;;;12.20;99.90;;;;;;5075644;28;20694;-66
2022/09/12 02:21:27;;;;;;;13.68;5.03;;;12.10;99.90;;;;;;5075342;28;20211;-67
2022/09/12 02:24:00;;;;;;;12.23;5.50;;;12.20;99.90;;;;;;5074296;28;20203;-66
2022/09/12 02:26:34;;;;;;;9.20;4.88;;;12.20;99.90;;;;;;5073879;28;20215;-67
2022/09/12 02:29:03;;;;;;;6.07;4.80;;;12.10;99.90;;;;;;5073831;28;20230;-66
2022/09/12 02:31:38;;;;;;;7.80;4.85;;;12.10;99.90;;;;;;5074090;28;20195;-67
2022/09/12 02:34:23;;;;;;;7.70;5.22;;;12.10;99.90;;;;;;5073841;28;20198;-66
2022/09/12 02:36:59;;;;;;;7.15;5.25;;;12.00;99.90;;;;;;5074025;28;20211;-67
2022/09/12 02:39:28;;;;;;;7.07;5.63;;;12.00;99.90;;;;;;5073961;28;20195;-68
2022/09/12 02:41:59;;;;;;;8.65;5.75;;;12.00;99.90;;;;;;5073236;28;20207;-68
2022/09/12 02:44:29;;;;;;;7.20;5.43;;;12.00;99.90;;;;;;5073911;28;20199;-67
2022/09/12 02:47:02;;;;;;;8.07;5.78;;;12.00;99.90;;;;;;5073900;28;20206;-69
2022/09/12 02:49:32;;;;;;;7.38;5.85;;;12.00;99.90;;;;;;5073855;28;20195;-68
2022/09/12 02:52:02;;;;;;;6.60;5.60;;;11.90;99.90;;;;;;5073903;28;20210;-67
2022/09/12 02:54:32;;;;;;;7.93;5.43;;;11.90;99.90;;;;;;5073437;28;20203;-65
2022/09/12 02:57:00;;;;;;;7.57;5.57;;;11.90;99.90;;;;;;5073564;28;20203;-66
2022/09/12 02:59:29;;;;;;;8.67;5.37;;;11.90;99.90;;;;;;5073448;28;20586;-66
2022/09/12 03:02:24;;;;;;;9.48;5.68;;;11.90;99.90;;;;;;5073321;28;20203;-67
2022/09/12 03:05:06;;;;;;;8.80;5.80;;;11.80;99.90;;;;;;5073620;28;20206;-67
2022/09/12 03:07:50;;;;;;;6.38;5.47;;;11.80;99.90;;;;;;5073252;28;20600;-67
2022/09/12 03:10:25;;;;;;;8.02;5.93;;;11.80;99.90;;;;;;5073273;28;20199;-67
2022/09/12 03:13:08;;;;;;;9.65;6.30;;;11.80;99.90;;;;;;5073213;28;20199;-66
2022/09/12 03:15:49;;;;;;;12.70;6.05;;;11.80;99.90;;;;;;5073087;28;20222;-65
2022/09/12 03:18:29;;;;;;;26.75;5.75;;;11.80;99.90;;;;;;5073354;28;20230;-66
2022/09/12 03:21:04;;;;;;;14.20;6.32;;;11.70;99.90;;;;;;5073059;28;20675;-66
2022/09/12 03:23:38;;;;;;;19.98;5.68;;;11.70;99.90;;;;;;5036708;28;1067232;-67
2022/09/12 03:26:15;;;;;;;18.48;6.68;;;11.70;99.90;;;;;;5074259;28;20210;-65
2022/09/12 03:28:47;;;;;;;19.23;6.57;;;11.70;99.90;;;;;;5074242;28;20234;-65
2022/09/12 03:31:18;;;;;;;30.65;6.50;;;11.70;99.90;;;;;;5074207;28;20199;-66
2022/09/12 03:33:47;;;;;;;13.40;5.70;;;11.60;99.90;;;;;;5074222;28;20210;-65
2022/09/12 03:36:21;;;;;;;20.93;5.80;;;11.60;99.90;;;;;;5074115;28;20195;-66
2022/09/12 03:38:50;;;;;;;7.75;6.05;;;11.60;99.90;;;;;;5073869;28;20257;-65
2022/09/12 03:41:19;;;;;;;9.57;6.00;;;11.60;99.90;;;;;;5073946;28;20664;-67
2022/09/12 03:43:47;;;;;;;8.90;6.60;;;11.60;99.90;;;;;;5073566;28;20199;-67
2022/09/12 03:46:16;;;;;;;10.20;6.75;;;11.60;99.90;;;;;;5073507;28;20658;-65
2022/09/12 03:48:45;;;;;;;8.82;5.70;;;11.60;99.90;;;;;;5073435;28;20242;-67
2022/09/12 03:51:13;;;;;;;8.45;5.65;;;11.60;99.90;;;;;;5073811;28;20681;-67
2022/09/12 03:53:43;;;;;;;7.70;5.70;;;11.60;99.90;;;;;;5072895;28;20203;-67
2022/09/12 03:56:12;;;;;;;8.48;6.15;;;11.60;99.90;;;;;;5073620;28;20562;-69
2022/09/12 03:58:41;;;;;;;6.47;5.88;;;11.60;99.90;;;;;;5073151;28;20235;-66
2022/09/12 04:01:12;;;;;;;10.60;6.07;;;11.50;99.90;;;;;;5073190;28;20554;-67
2022/09/12 04:03:41;;;;;;;7.88;6.03;;;11.50;99.90;;;;;;5073529;28;20199;-67
2022/09/12 04:06:11;;;;;;;8.45;5.97;;;11.50;99.90;;;;;;5073378;28;20198;-67
2022/09/12 04:08:42;;;;;;;7.15;6.45;;;11.50;99.90;;;;;;5073154;28;20581;-67
2022/09/12 04:11:14;;;;;;;8.18;6.78;;;11.40;99.90;;;;;;5073259;28;20210;-67
2022/09/12 04:13:44;;;;;;;8.83;7.13;;;11.40;99.90;;;;;;5073282;28;20202;-66
2022/09/12 04:16:13;;;;;;;14.30;9.65;;;11.40;99.90;;;;;;5072959;28;20214;-67
2022/09/12 04:18:42;;;;;;;14.37;9.30;;;11.40;99.90;;;;;;5073045;28;20238;-66
2022/09/12 04:21:13;;;;;;;13.93;9.40;;;11.40;99.90;;;;;;5073138;28;20206;-67
2022/09/12 04:23:42;;;;;;;9.70;7.82;;;11.40;99.90;;;;;;5072924;28;20203;-67
2022/09/12 04:26:13;;;;;;;7.63;6.83;;;11.40;99.90;;;;;;5072782;28;20191;-65
2022/09/12 04:28:42;;;;;;;7.57;6.80;;;11.40;99.90;;;;;;5072873;28;20214;-68
2022/09/12 04:31:14;;;;;;;6.33;5.73;;;11.40;99.90;;;;;;5072857;28;20558;-67
2022/09/12 04:33:43;;;;;;;6.73;5.97;;;11.40;99.90;;;;;;5072861;28;20557;-68
2022/09/12 04:36:15;;;;;;;8.90;6.03;;;11.30;99.90;;;;;;5072664;28;20191;-67
2022/09/12 04:38:45;;;;;;;19.05;5.97;;;11.30;99.90;;;;;;5072577;28;20250;-67
2022/09/12 04:41:17;;;;;;;11.40;6.30;;;11.30;99.90;;;;;;5072680;28;20191;-66
2022/09/12 04:43:47;;;;;;;7.43;6.07;;;11.20;99.90;;;;;;5072793;28;20656;-67
2022/09/12 04:46:18;;;;;;;10.07;5.90;;;11.20;99.90;;;;;;5072545;28;20202;-66
2022/09/12 04:48:48;;;;;;;12.30;5.67;;;11.10;99.90;;;;;;5072554;28;20227;-65
2022/09/12 04:51:24;;;;;;;5.70;5.20;;;11.00;99.90;;;;;;5072470;28;20202;-67
2022/09/12 04:53:56;;;;;;;5.97;4.90;;;11.00;99.90;;;;;;5072600;28;20191;-67
2022/09/12 04:56:27;;;;;;;10.70;5.10;;;11.00;99.90;;;;;;5072454;28;20194;-66
2022/09/12 04:58:57;;;;;;;9.07;5.07;;;11.00;99.90;;;;;;5072542;28;20234;-65
2022/09/12 05:01:28;;;;;;;6.77;4.90;;;11.00;99.90;;;;;;5072500;28;20191;-66
2022/09/12 05:03:58;;;;;;;7.83;5.13;;;11.00;99.90;;;;;;5072316;28;20642;-67
2022/09/12 05:06:29;;;;;;;14.37;11.60;;;11.10;99.90;;;;;;5072264;28;20203;-67
2022/09/12 05:08:58;;;;;;;16.80;10.00;;;11.00;99.90;;;;;;5072236;28;20210;-67
2022/09/12 05:11:30;;;;;;;8.10;6.70;;;11.00;99.90;;;;;;5072230;28;20191;-65
2022/09/12 05:14:19;;;;;;;6.43;5.83;;;11.00;99.90;;;;;;5072249;28;20183;-67
2022/09/12 05:16:48;;;;;;;6.10;5.50;;;11.00;99.90;;;;;;5072143;28;20210;-66
2022/09/12 05:19:17;;;;;;;8.33;4.83;;;11.10;99.90;;;;;;5071933;28;20223;-65
2022/09/12 05:21:46;;;;;;;6.07;5.47;;;11.00;99.90;;;;;;5072033;28;20574;-67
2022/09/12 05:24:15;;;;;;;13.80;12.48;;;11.10;99.90;;;;;;5072269;28;20669;-66
2022/09/12 05:26:44;;;;;;;10.80;9.70;;;11.00;99.90;;;;;;5072230;28;20642;-67
2022/09/12 05:29:13;;;;;;;7.00;6.27;;;11.00;99.90;;;;;;5072116;28;20681;-68
2022/09/12 05:31:42;;;;;;;6.23;4.87;;;11.00;99.90;;;;;;5071964;28;20537;-67
2022/09/12 05:34:11;;;;;;;6.43;4.63;;;11.00;99.90;;;;;;5072024;28;20669;-66
2022/09/12 05:36:40;;;;;;;7.10;6.40;;;11.00;99.90;;;;;;5072022;28;20557;-67
2022/09/12 05:39:09;;;;;;;7.13;6.53;;;11.00;99.90;;;;;;5071820;28;20226;-66
2022/09/12 05:41:37;;;;;;;6.27;5.67;;;11.00;99.90;;;;;;5072003;28;20195;-65
2022/09/12 05:44:12;;;;;;;5.40;4.83;;;11.00;99.90;;;;;;5071978;28;20198;-66
2022/09/12 05:46:43;;;;;;;5.87;4.83;;;11.00;99.90;;;;;;5071959;28;20663;-65
2022/09/12 05:49:13;;;;;;;4.80;4.30;;;10.90;99.90;;;;;;5071892;28;20222;-66
2022/09/12 05:51:43;;;;;;;5.67;4.53;;;10.90;99.90;;;;;;5072084;28;20211;-64
2022/09/12 05:54:15;;;;;;;5.27;4.60;;;11.00;99.90;;;;;;5071894;28;20184;-66
2022/09/12 05:56:45;;;;;;;8.67;7.17;;;11.00;99.90;;;;;;5071948;28;20669;-66
2022/09/12 05:59:17;;;;;;;10.23;9.17;;;11.00;99.90;;;;;;5071675;28;20211;-66
2022/09/12 06:01:46;;;;;;;6.90;6.20;;;11.10;99.90;;;;;;5072017;28;20215;-66
2022/09/12 06:04:15;;;;;;;9.07;8.03;;;11.20;99.90;;;;;;5071939;28;20222;-67
2022/09/12 06:06:45;;;;;;;9.70;8.23;;;11.20;99.90;;;;;;5071956;28;20191;-66
2022/09/12 06:09:16;;;;;;;9.23;7.60;;;11.30;99.90;;;;;;5072169;28;20681;-66
2022/09/12 06:11:45;;;;;;;6.87;5.73;;;11.40;99.90;;;;;;5071849;28;20195;-66
2022/09/12 06:14:18;;;;;;;6.22;5.25;;;11.40;99.90;;;;;;5071964;28;20200;-66
2022/09/12 06:16:47;;;;;;;6.83;5.47;;;11.50;99.90;;;;;;5074109;28;20187;-66
2022/09/12 06:19:18;;;;;;;5.30;4.80;;;11.50;99.90;;;;;;5075192;28;20595;-66
2022/09/12 06:21:48;;;;;;;5.43;4.93;;;11.60;99.90;;;;;;5075277;28;20601;-66
2022/09/12 06:24:17;;;;;;;7.07;5.28;;;11.70;99.90;;;;;;5075337;28;20183;-67
2022/09/12 06:26:46;;;;;;;7.05;4.82;;;11.70;99.90;;;;;;5075245;28;20195;-67
2022/09/12 06:29:18;;;;;;;5.13;4.63;;;11.70;99.90;;;;;;5075080;28;20379;-66
2022/09/12 06:31:46;;;;;;;5.68;5.05;;;11.70;99.90;;;;;;5075166;28;20199;-66
2022/09/12 06:34:16;;;;;;;5.30;4.80;;;11.80;99.90;;;;;;5075056;28;20198;-67
2022/09/12 06:36:46;;;;;;;5.05;4.55;;;11.80;99.90;;;;;;5075027;28;20590;-66
2022/09/12 06:39:16;;;;;;;4.63;4.22;;;11.90;99.90;;;;;;5075079;28;20215;-66
2022/09/12 06:41:46;;;;;;;5.50;4.55;;;11.90;99.90;;;;;;5074903;28;20219;-66
2022/09/12 06:44:18;;;;;;;5.45;4.95;;;12.00;99.90;;;;;;5074918;28;20203;-67
2022/09/12 06:46:47;;;;;;;5.28;4.78;;;12.10;99.90;;;;;;5074899;28;20660;-67
2022/09/12 06:49:16;;;;;;;6.60;5.22;;;12.20;99.90;;;;;;5074702;28;20234;-66
2022/09/12 06:51:45;;;;;;;6.10;5.03;;;12.30;99.90;;;;;;5074784;28;20202;-68
2022/09/12 06:54:15;;;;;;;6.28;5.47;;;12.30;99.90;;;;;;5074753;28;20199;-68
2022/09/12 06:56:44;;;;;;;8.18;5.80;;;12.40;99.90;;;;;;5074737;28;20610;-67
2022/09/12 06:59:13;;;;;;;5.90;5.30;;;12.40;99.90;;;;;;5075018;28;20223;-67
2022/09/12 07:01:43;;;;;;;7.20;5.45;;;12.50;99.90;;;;;;5074449;28;20226;-67
2022/09/12 07:04:13;;;;;;;8.00;6.85;;;12.60;99.90;;;;;;5074509;28;20206;-67
2022/09/12 07:06:43;;;;;;;7.25;6.55;;;12.60;99.90;;;;;;5057274;28;20197;-66
2022/09/12 07:09:16;;;;;;;6.78;5.55;;;12.70;99.90;;;;;;5074352;28;20576;-66
2022/09/12 07:11:45;;;;;;;6.18;5.60;;;12.70;99.90;;;;;;5074439;28;20646;-67
2022/09/12 07:14:14;;;;;;;7.13;6.20;;;12.80;99.90;;;;;;5074384;28;20645;-67
2022/09/12 07:16:44;;;;;;;6.68;5.82;;;12.90;99.90;;;;;;5074249;28;20199;-67
2022/09/12 07:19:13;;;;;;;6.75;4.95;;;13.00;99.90;;;;;;5074303;28;20218;-67
2022/09/12 07:21:42;;;;;;;6.70;6.07;;;13.10;99.90;;;;;;5073979;28;20226;-68
2022/09/12 07:24:10;;;;;;;8.82;6.13;;;13.20;99.90;;;;;;5074193;28;20192;-65
2022/09/12 07:26:40;;;;;;;7.47;6.30;;;13.30;99.90;;;;;;5073607;28;20195;-66
2022/09/12 07:29:14;;;;;;;10.40;7.20;;;13.30;99.90;;;;;;5073339;28;20218;-65
2022/09/12 07:32:05;;;;;;;8.95;7.28;;;13.40;99.90;;;;;;5074013;28;20188;-66
2022/09/12 07:34:34;;;;;;;9.30;7.38;;;13.50;99.90;;;;;;5074033;28;20183;-66
2022/09/12 07:37:03;;;;;;;10.30;7.75;;;13.60;99.90;;;;;;5073755;28;20206;-67
2022/09/12 07:39:32;;;;;;;10.02;8.45;;;13.60;99.90;;;;;;5073776;28;20191;-67
2022/09/12 07:42:00;;;;;;;9.18;7.78;;;13.70;99.90;;;;;;5073630;28;20222;-68
2022/09/12 07:44:29;;;;;;;8.50;7.68;;;13.80;99.90;;;;;;5073721;28;20187;-66
2022/09/12 07:46:58;;;;;;;8.82;7.93;;;13.90;99.90;;;;;;5073640;28;20202;-66
2022/09/12 07:49:29;;;;;;;13.00;8.20;;;14.00;99.90;;;;;;5073632;28;20218;-67
2022/09/12 07:51:58;;;;;;;9.60;8.60;;;14.10;99.90;;;;;;5073616;28;20626;-67
2022/09/12 07:54:26;;;;;;;11.10;7.72;;;14.20;99.90;;;;;;5073582;28;20206;-65
2022/09/12 07:56:55;;;;;;;9.40;8.15;;;14.30;99.90;;;;;;5073498;28;20192;-66
2022/09/12 07:59:24;;;;;;;9.98;8.70;;;14.40;99.90;;;;;;5073441;28;20206;-65
2022/09/12 08:02:13;;;;;;;11.02;9.07;;;14.50;99.90;;;;;;5073300;28;20218;-67
2022/09/12 08:04:47;;;;;;;10.38;9.05;;;14.60;99.90;;;;;;5073424;28;20183;-66
2022/09/12 08:07:17;;;;;;;10.57;9.05;;;14.80;99.90;;;;;;5073280;28;20184;-67
2022/09/12 08:09:46;;;;;;;12.40;9.93;;;14.90;99.90;;;;;;5073315;28;20198;-66
2022/09/12 08:12:16;;;;;;;12.00;10.73;;;14.90;99.90;;;;;;5073134;28;20187;-67
2022/09/12 08:14:45;;;;;;;12.57;10.68;;;15.00;99.90;;;;;;5073202;28;20218;-68
2022/09/12 08:17:14;;;;;;;15.75;12.93;;;15.10;99.90;;;;;;5073029;28;20202;-67
2022/09/12 08:19:43;;;;;;;15.25;11.38;;;15.40;99.90;;;;;;5073021;28;20195;-68
2022/09/12 08:22:14;;;;;;;17.65;12.93;;;15.50;99.90;;;;;;5072730;28;20597;-67
2022/09/12 08:24:42;;;;;;;19.52;14.85;;;15.60;99.90;;;;;;5072945;28;20534;-67
2022/09/12 08:27:11;;;;;;;22.10;15.23;;;15.80;99.90;;;;;;5072734;28;20195;-67
2022/09/12 08:29:40;;;;;;;24.63;15.82;;;15.90;99.90;;;;;;5072874;28;20198;-68
2022/09/12 08:32:09;;;;;;;21.35;15.77;;;15.90;99.90;;;;;;5072793;28;20195;-67
2022/09/12 08:34:38;;;;;;;20.13;14.70;;;16.00;99.90;;;;;;5072760;28;20202;-67
2022/09/12 08:37:06;;;;;;;19.98;15.68;;;16.10;99.90;;;;;;5072657;28;20202;-67
2022/09/12 08:39:36;;;;;;;18.10;13.95;;;16.20;99.90;;;;;;5072352;28;20203;-67
2022/09/12 08:42:06;;;;;;;18.35;14.93;;;16.30;99.90;;;;;;5072763;28;20591;-67
2022/09/12 08:44:55;;;;;;;16.02;12.80;;;16.40;99.90;;;;;;5072688;28;20199;-67
2022/09/12 08:47:28;;;;;;;14.60;12.45;;;16.50;99.90;;;;;;5072538;28;20227;-68
2022/09/12 08:50:05;;;;;;;14.43;12.73;;;16.60;99.90;;;;;;5072661;28;20184;-67
2022/09/12 08:52:38;;;;;;;16.40;13.90;;;16.70;99.90;;;;;;5072642;28;20198;-67
2022/09/12 08:55:31;;;;;;;16.40;13.27;;;16.90;99.90;;;;;;5072644;28;20293;-67
2022/09/12 08:58:00;;;;;;;13.32;11.93;;;17.00;99.90;;;;;;5072454;28;20215;-67
2022/09/12 09:00:37;;;;;;;14.35;12.68;;;17.10;99.90;;;;;;5072400;28;20668;-68
2022/09/12 09:03:43;;;;;;;13.85;12.07;;;17.20;99.90;;;;;;5071443;28;20222;-67
2022/09/12 09:06:22;;;;;;;12.90;11.55;;;17.30;99.90;;;;;;5072674;28;20187;-68
2022/09/12 09:09:00;;;;;;;13.48;11.88;;;17.40;99.90;;;;;;5072330;28;20226;-68
2022/09/12 09:11:42;;;;;;;13.20;10.85;;;17.50;99.90;;;;;;5072394;28;20661;-68
2022/09/12 09:14:48;;;;;;;11.23;10.13;;;17.60;99.90;;;;;;5072364;28;20187;-66
2022/09/12 09:17:24;;;;;;;12.30;9.05;;;17.80;99.90;;;;;;5072340;28;20183;-69
2022/09/12 09:19:58;;;;;;;9.82;8.82;;;18.10;99.90;;;;;;5072188;28;20191;-67
2022/09/12 09:22:38;;;;;;;10.60;9.32;;;18.30;99.90;;;;;;5072115;28;20711;-68
2022/09/12 09:25:13;;;;;;;9.38;8.48;;;18.40;99.90;;;;;;5072259;28;20187;-68
2022/09/12 09:27:49;;;;;;;10.93;9.00;;;18.60;99.90;;;;;;5072049;28;20218;-69
2022/09/12 09:30:20;;;;;;;9.85;8.85;;;18.60;99.90;;;;;;5072320;28;20183;-67
2022/09/12 09:32:52;;;;;;;9.52;7.80;;;18.70;99.90;;;;;;5072140;28;20191;-68
2022/09/12 09:35:28;;;;;;;8.70;7.80;;;18.80;99.90;;;;;;5072106;28;20208;-67
2022/09/12 09:38:15;;;;;;;7.63;6.93;;;19.00;99.90;;;;;;5072019;28;20583;-68
2022/09/12 09:40:50;;;;;;;9.43;8.30;;;19.50;99.90;;;;;;5072083;28;20661;-68
2022/09/12 09:43:23;;;;;;;8.45;6.88;;;19.70;99.90;;;;;;5072038;28;20222;-71
2022/09/12 09:45:53;;;;;;;8.93;7.75;;;20.10;99.90;;;;;;5072023;28;20183;-69
2022/09/12 09:48:26;;;;;;;7.85;6.85;;;20.40;99.90;;;;;;5071836;28;20203;-69
2022/09/12 09:50:58;;;;;;;6.85;5.90;;;20.50;99.90;;;;;;5073117;28;20191;-68
2022/09/12 09:53:34;;;;;;;6.72;6.00;;;20.50;99.90;;;;;;5075927;28;20183;-69
2022/09/12 09:56:10;;;;;;;6.60;5.47;;;20.70;99.90;;;;;;5075788;28;20669;-68
2022/09/12 09:58:40;;;;;;;7.53;6.22;;;20.70;99.90;;;;;;5075841;28;20352;-68
2022/09/12 10:01:15;;;;;;;7.50;6.30;;;20.70;99.90;;;;;;5075750;28;20192;-68
2022/09/12 10:03:51;;;;;;;8.45;6.18;;;21.00;99.90;;;;;;5075620;28;20214;-68
2022/09/12 10:06:33;;;;;;;6.97;5.63;;;21.20;99.90;;;;;;5075588;28;20195;-70
2022/09/12 10:09:17;;;;;;;7.38;6.20;;;21.30;99.90;;;;;;5075470;28;20215;-68
2022/09/12 10:11:46;;;;;;;7.20;5.43;;;21.30;99.90;;;;;;5075571;28;20187;-69
2022/09/12 10:14:37;;;;;;;7.25;5.78;;;21.60;99.90;;;;;;5075456;28;20195;-69
2022/09/12 10:17:23;;;;;;;6.05;5.38;;;21.80;99.90;;;;;;5075550;28;20218;-69
2022/09/12 10:19:52;;;;;;;5.32;4.82;;;21.80;99.90;;;;;;5075317;28;20183;-69
2022/09/12 10:22:46;;;;;;;4.80;4.40;;;21.80;99.90;;;;;;5075114;28;20210;-69
2022/09/12 10:25:18;;;;;;;6.75;5.68;;;21.80;99.90;;;;;;5074194;28;20186;-69
2022/09/12 10:27:54;;;;;;;8.05;6.15;;;21.80;99.90;;;;;;5075252;28;20222;-68
2022/09/12 10:30:27;;;;;;;6.70;5.63;;;21.90;99.90;;;;;;5075158;28;20187;-69
2022/09/12 10:32:59;;;;;;;5.93;4.60;;;21.90;99.90;;;;;;5074090;28;20379;-69
2022/09/12 10:35:30;;;;;;;9.00;5.57;;;22.10;99.90;;;;;;5075296;28;20175;-69
2022/09/12 10:38:02;;;;;;;5.90;5.18;;;22.10;99.90;;;;;;5075123;28;20215;-69
2022/09/12 10:40:35;;;;;;;6.30;5.70;;;22.20;99.90;;;;;;5088169;28;20203;-69
2022/09/12 10:43:17;;;;;;;5.45;4.88;;;22.40;99.90;;;;;;5095250;28;20214;-68
2022/09/12 10:45:47;;;;;;;5.72;4.57;;;22.80;99.50;;;;;;5095127;28;20187;-69
2022/09/12 10:48:26;;;;;;;10.20;5.90;;;23.10;99.90;;;;;;5095024;28;20218;-69
2022/09/12 10:50:56;;;;;;;8.52;4.90;;;23.00;99.90;;;;;;5095291;28;20216;-69
2022/09/12 10:53:27;;;;;;;6.88;5.45;;;23.00;99.90;;;;;;5095124;28;20194;-68
2022/09/12 10:56:10;;;;;;;5.38;4.57;;;23.00;99.70;;;;;;5095049;28;20182;-68
2022/09/12 10:59:03;;;;;;;5.55;4.30;;;22.90;99.40;;;;;;5094845;28;20218;-69
2022/09/12 11:01:43;;;;;;;7.00;4.82;;;23.10;99.50;;;;;;5094606;28;20194;-69
2022/09/12 11:04:28;;;;;;;8.35;4.93;;;23.10;98.90;;;;;;5094682;28;20206;-69
2022/09/12 11:07:26;;;;;;;6.85;4.82;;;23.30;98.80;;;;;;5094950;28;20187;-70
2022/09/12 11:10:02;;;;;;;5.72;5.10;;;23.40;98.90;;;;;;5094742;28;20174;-70
2022/09/12 11:12:37;;;;;;;5.68;5.00;;;23.50;96.80;;;;;;5094925;28;20186;-68
2022/09/12 11:15:22;;;;;;;5.90;5.30;;;23.60;96.60;;;;;;5094641;28;20186;-69
2022/09/12 11:18:00;;;;;;;6.65;5.57;;;23.90;94.90;;;;;;5094432;28;20217;-68
2022/09/12 11:20:43;;;;;;;5.80;5.13;;;23.80;97.20;;;;;;5094571;28;20183;-69
2022/09/12 11:23:38;;;;;;;6.30;4.82;;;23.60;96.60;;;;;;5094301;28;20229;-70
2022/09/12 11:26:19;;;;;;;6.63;4.85;;;23.80;97.00;;;;;;5094361;28;20187;-70
2022/09/12 11:28:56;;;;;;;5.18;4.75;;;24.00;94.90;;;;;;5094331;28;20214;-69
2022/09/12 11:31:58;;;;;;;5.30;4.75;;;24.10;95.40;;;;;;5094423;28;20187;-69
2022/09/12 11:34:37;;;;;;;5.47;4.07;;;24.10;95.30;;;;;;5063841;28;20202;-68
2022/09/12 11:37:23;;;;;;;5.57;4.95;;;23.90;95.90;;;;;;5094214;28;20183;-70
2022/09/12 11:39:52;;;;;;;4.90;4.40;;;23.80;95.90;;;;;;5093029;28;20583;-69
2022/09/12 11:42:31;;;;;;;5.63;4.28;;;23.60;96.30;;;;;;5094092;28;20219;-71
2022/09/12 11:45:07;;;;;;;6.30;4.65;;;23.70;94.30;;;;;;5093955;28;20213;-69
2022/09/12 11:47:37;;;;;;;5.30;4.45;;;23.80;94.30;;;;;;5093913;28;20218;-70
2022/09/12 11:50:20;;;;;;;6.18;5.18;;;23.90;94.80;;;;;;5093908;28;20191;-69
2022/09/12 11:52:51;;;;;;;7.30;5.25;;;23.90;95.70;;;;;;5093893;28;20530;-69
2022/09/12 11:55:25;;;;;;;5.70;5.07;;;24.00;94.70;;;;;;5093834;28;20190;-69
2022/09/12 11:57:56;;;;;;;5.15;4.65;;;24.00;93.30;;;;;;5093772;28;20214;-70
2022/09/12 12:00:30;;;;;;;5.70;4.15;;;24.00;93.70;;;;;;5093784;28;20186;-70
2022/09/12 12:03:08;;;;;;;7.88;5.18;;;24.00;94.40;;;;;;5093835;28;20656;-69
2022/09/12 12:05:46;;;;;;;5.22;4.72;;;23.90;95.00;;;;;;5093818;28;20206;-69
2022/09/12 12:08:15;;;;;;;5.55;4.50;;;24.00;92.80;;;;;;5093531;28;20209;-68
2022/09/12 12:10:50;;;;;;;5.38;4.45;;;24.20;91.90;;;;;;5093536;28;20197;-69
2022/09/12 12:13:23;;;;;;;4.80;4.40;;;23.90;93.40;;;;;;5092766;28;20202;-69
2022/09/12 12:15:54;;;;;;;4.80;4.30;;;23.90;92.10;;;;;;5093504;28;20187;-69
2022/09/12 12:18:25;;;;;;;4.82;4.20;;;23.70;93.90;;;;;;5093276;28;20226;-69
2022/09/12 12:20:56;;;;;;;5.35;4.85;;;23.50;94.90;;;;;;5093619;28;20221;-69
2022/09/12 12:23:28;;;;;;;5.40;4.90;;;23.50;93.60;;;;;;5093216;28;20199;-69
2022/09/12 12:25:58;;;;;;;6.88;5.15;;;23.40;94.50;;;;;;5093264;28;20187;-68
2022/09/12 12:29:00;;;;;;;5.68;5.05;;;23.30;94.40;;;;;;5093284;28;20219;-70
2022/09/12 12:31:28;;;;;;;5.35;4.85;;;23.20;93.80;;;;;;5030908;28;20207;-69
2022/09/12 12:34:20;;;;;;;5.95;4.63;;;23.10;93.60;;;;;;5080761;28;20202;-69
2022/09/12 12:36:50;;;;;;;5.97;4.68;;;23.10;94.30;;;;;;5091973;28;20191;-68
2022/09/12 12:39:59;;;;;;;4.65;4.20;;;23.00;94.50;;;;;;5093222;28;20237;-70
2022/09/12 12:43:25;;;;;;;5.22;4.72;;;23.00;93.00;;;;;;5092906;28;20272;-68
2022/09/12 12:46:12;;;;;;;5.38;4.45;;;23.10;92.80;;;;;;5092828;28;20285;-68
2022/09/12 12:48:55;;;;;;;4.25;3.85;;;23.00;94.00;;;;;;5092861;28;20215;-70
2022/09/12 12:51:32;;;;;;;4.40;4.00;;;23.20;92.20;;;;;;5092885;28;20182;-68
2022/09/12 12:54:05;;;;;;;4.45;4.05;;;23.50;90.80;;;;;;5092804;28;20187;-70
2022/09/12 12:56:41;;;;;;;5.05;3.97;;;23.50;91.40;;;;;;5092717;28;20193;-69
2022/09/12 12:59:17;;;;;;;5.05;4.38;;;23.40;92.30;;;;;;5092709;28;20210;-69
2022/09/12 13:01:49;;;;;;;5.70;4.63;;;23.50;90.80;;;;;;5092772;28;20209;-71
2022/09/12 13:04:25;;;;;;;6.60;4.75;;;23.50;93.40;;;;;;5092597;28;20210;-70
2022/09/12 13:07:02;;;;;;;4.97;4.30;;;23.60;91.20;;;;;;5092622;28;20187;-69
2022/09/12 13:09:45;;;;;;;4.13;3.75;;;23.70;91.90;;;;;;5092593;28;20183;-68
2022/09/12 13:12:20;;;;;;;5.80;4.53;;;23.70;91.30;;;;;;5092547;28;20194;-68
2022/09/12 13:14:57;;;;;;;4.68;4.28;;;23.80;90.40;;;;;;5092578;28;20182;-69
2022/09/12 13:17:32;;;;;;;5.03;4.53;;;23.80;92.10;;;;;;5092505;28;20217;-69
2022/09/12 13:20:21;;;;;;;4.35;3.88;;;23.50;93.10;;;;;;5092651;28;20182;-69